createdAt,value
2018-01-01T00:02:26.118Z,143.40
2018-01-01T00:04:53.597Z,138.53
2018-01-01T00:07:21.050Z,131.13
2018-01-01T00:09:48.504Z,124.80
2018-01-01T00:12:15.965Z,117.87
2018-01-01T00:14:43.415Z,119.63
2018-01-01T00:17:10.883Z,114.20
2018-01-01T00:19:38.350Z,108.20
2018-01-01T00:22:05.799Z,99.07
2018-01-01T00:24:33.253Z,96.47
2018-01-01T00:27:00.708Z,88.17
2018-01-01T00:29:28.928Z,77.53
2018-01-01T00:31:56.382Z,75.40
2018-01-01T00:34:23.861Z,72.80
2018-01-01T00:36:51.293Z,65.63
2018-01-01T00:39:18.824Z,58.87
2018-01-01T00:41:46.870Z,56.50
2018-01-01T00:44:14.330Z,54.67
2018-01-01T00:46:41.783Z,49.40
2018-01-01T00:49:09.234Z,48.03
2018-01-01T00:51:36.678Z,43.47
2018-01-01T00:54:04.167Z,42.53
2018-01-01T00:56:31.621Z,39.00
2018-01-01T00:58:59.078Z,36.00
2018-01-01T01:01:26.531Z,35.67
2018-01-01T01:03:53.990Z,31.00
2018-01-01T01:06:21.438Z,30.97
2018-01-01T01:08:49.659Z,29.27
2018-01-01T01:11:17.104Z,26.73
2018-01-01T01:13:44.567Z,25.63
2018-01-01T01:16:12.033Z,24.83
2018-01-01T01:18:39.503Z,23.20
2018-01-01T01:21:07.706Z,22.23
2018-01-01T01:23:35.157Z,21.23
2018-01-01T01:26:02.620Z,19.87
2018-01-01T01:28:30.079Z,18.57
2018-01-01T01:30:57.540Z,17.10
2018-01-01T01:33:24.998Z,16.80
2018-01-01T01:35:52.469Z,14.83
2018-01-01T01:38:19.903Z,13.40
2018-01-01T01:40:47.364Z,13.07
2018-01-01T01:43:14.805Z,11.60
2018-01-01T01:45:43.026Z,11.13
2018-01-01T01:48:10.473Z,9.70
2018-01-01T01:50:37.911Z,10.90
2018-01-01T01:53:06.127Z,8.50
2018-01-01T01:55:33.578Z,9.47
2018-01-01T01:58:01.032Z,8.57
2018-01-01T02:00:28.518Z,8.47
2018-01-01T02:02:56.713Z,7.67
2018-01-01T02:05:24.154Z,7.20
2018-01-01T02:07:51.631Z,5.93
2018-01-01T02:10:19.078Z,6.13
2018-01-01T02:12:46.516Z,5.37
2018-01-01T02:15:13.974Z,5.40
2018-01-01T02:17:42.178Z,5.47
2018-01-01T02:20:09.629Z,4.33
2018-01-01T02:22:37.080Z,4.40
2018-01-01T02:25:05.318Z,4.60
2018-01-01T02:27:32.761Z,3.90
2018-01-01T02:30:01.007Z,4.20
2018-01-01T02:32:33.020Z,3.30
2018-01-01T02:35:00.456Z,3.93
2018-01-01T02:37:27.946Z,3.33
2018-01-01T02:39:55.393Z,3.27
2018-01-01T02:42:22.834Z,3.37
2018-01-01T02:44:50.299Z,3.47
2018-01-01T02:47:17.769Z,3.40
2018-01-01T02:49:45.229Z,3.27
2018-01-01T02:52:12.695Z,3.00
2018-01-01T02:54:40.144Z,3.23
2018-01-01T02:57:07.569Z,3.20
2018-01-01T03:02:08.826Z,2.90
2018-01-01T03:04:36.292Z,2.63
2018-01-01T03:07:03.720Z,2.93
2018-01-01T03:09:31.187Z,3.10
2018-01-01T03:11:58.636Z,2.73
2018-01-01T03:14:26.093Z,3.67
2018-01-01T03:16:53.533Z,2.93
2018-01-01T03:19:21.734Z,2.70
2018-01-01T03:21:49.188Z,2.73
2018-01-01T03:24:16.637Z,2.70
2018-01-01T03:26:44.863Z,2.63
2018-01-01T03:29:13.087Z,2.73
2018-01-01T03:31:40.541Z,2.40
2018-01-01T03:34:07.978Z,3.27
2018-01-01T03:36:35.427Z,2.57
2018-01-01T03:39:02.887Z,2.50
2018-01-01T03:41:30.344Z,2.87
2018-01-01T03:43:57.780Z,2.57
2018-01-01T03:46:25.240Z,2.23
2018-01-01T03:48:53.465Z,2.40
2018-01-01T03:51:20.918Z,2.30
2018-01-01T03:53:48.368Z,2.50
2018-01-01T03:56:15.813Z,3.47
2018-01-01T03:58:43.258Z,2.57
2018-01-01T04:01:11.464Z,2.43
2018-01-01T04:03:38.926Z,2.10
2018-01-01T04:06:06.358Z,2.57
2018-01-01T04:08:34.564Z,3.30
2018-01-01T04:11:02.022Z,2.80
2018-01-01T04:13:30.237Z,2.43
2018-01-01T04:15:57.679Z,2.73
2018-01-01T04:18:25.131Z,2.80
2018-01-01T04:20:52.579Z,2.37
2018-01-01T04:23:20.795Z,2.40
2018-01-01T04:25:48.251Z,2.80
2018-01-01T04:28:15.723Z,2.63
2018-01-01T04:30:43.166Z,2.80
2018-01-01T04:33:10.614Z,2.50
2018-01-01T04:35:38.082Z,2.63
2018-01-01T04:38:05.530Z,2.50
2018-01-01T04:40:33.736Z,2.57
2018-01-01T04:43:01.219Z,2.73
2018-01-01T04:45:28.675Z,2.23
2018-01-01T04:47:56.117Z,2.93
2018-01-01T04:50:23.546Z,2.43
2018-01-01T04:52:51.780Z,2.50
2018-01-01T04:55:19.227Z,3.20
2018-01-01T04:57:46.677Z,2.33
2018-01-01T05:00:14.124Z,3.40
2018-01-01T05:02:42.346Z,2.60
2018-01-01T05:05:09.793Z,2.33
2018-01-01T05:07:37.236Z,2.53
2018-01-01T05:10:05.454Z,2.43
2018-01-01T05:12:32.910Z,2.60
2018-01-01T05:15:00.362Z,2.47
2018-01-01T05:17:27.821Z,2.53
2018-01-01T05:19:55.286Z,3.07
2018-01-01T05:22:22.729Z,2.57
2018-01-01T05:24:50.923Z,2.13
2018-01-01T05:27:18.383Z,2.60
2018-01-01T05:29:45.838Z,3.00
2018-01-01T05:32:14.065Z,2.40
2018-01-01T05:34:42.295Z,2.23
2018-01-01T05:37:10.512Z,2.50
2018-01-01T05:39:37.987Z,2.23
2018-01-01T05:42:05.477Z,2.53
2018-01-01T05:44:32.916Z,2.53
2018-01-01T05:47:00.376Z,2.50
2018-01-01T05:49:27.807Z,2.30
2018-01-01T05:51:55.275Z,2.53
2018-01-01T05:54:22.719Z,2.87
2018-01-01T05:56:50.166Z,2.80
2018-01-01T05:59:18.400Z,2.40
2018-01-01T06:01:45.834Z,2.67
2018-01-01T06:04:13.300Z,2.43
2018-01-01T06:06:40.745Z,2.90
2018-01-01T06:09:08.962Z,2.50
2018-01-01T06:11:36.408Z,2.67
2018-01-01T06:14:03.831Z,2.30
2018-01-01T06:16:32.038Z,3.10
2018-01-01T06:18:59.473Z,2.83
2018-01-01T06:21:27.674Z,3.27
2018-01-01T06:23:55.119Z,3.03
2018-01-01T06:26:23.338Z,2.90
2018-01-01T06:28:50.771Z,3.13
2018-01-01T06:31:19.285Z,3.10
2018-01-01T06:33:46.736Z,3.33
2018-01-01T06:36:14.199Z,3.10
2018-01-01T06:38:41.645Z,3.13
2018-01-01T06:41:09.083Z,3.57
2018-01-01T06:43:36.541Z,3.60
2018-01-01T06:46:03.983Z,3.20
2018-01-01T06:48:31.441Z,2.97
2018-01-01T06:50:58.878Z,3.33
2018-01-01T06:53:26.328Z,3.37
2018-01-01T06:55:53.775Z,3.57
2018-01-01T06:58:22.002Z,2.97
2018-01-01T07:00:49.441Z,3.47
2018-01-01T07:03:16.870Z,3.77
2018-01-01T07:05:45.095Z,2.97
2018-01-01T07:08:12.546Z,3.30
2018-01-01T07:10:39.993Z,3.00
2018-01-01T07:13:08.200Z,3.23
2018-01-01T07:15:35.649Z,2.97
2018-01-01T07:18:03.100Z,3.43
2018-01-01T07:20:30.555Z,2.70
2018-01-01T07:22:58.766Z,3.10
2018-01-01T07:25:26.230Z,2.90
2018-01-01T07:27:53.682Z,2.63
2018-01-01T07:30:21.126Z,2.90
2018-01-01T07:32:49.343Z,3.00
2018-01-01T07:35:16.786Z,2.50
2018-01-01T07:37:44.223Z,2.70
2018-01-01T07:40:12.431Z,2.50
2018-01-01T07:42:39.879Z,3.13
2018-01-01T07:45:07.330Z,2.90
2018-01-01T07:47:35.582Z,2.57
2018-01-01T07:50:03.047Z,2.40
2018-01-01T07:52:30.505Z,2.37
2018-01-01T07:54:57.938Z,2.20
2018-01-01T07:57:25.393Z,2.10
2018-01-01T07:59:52.851Z,2.63
2018-01-01T08:02:20.294Z,2.50
2018-01-01T08:04:47.781Z,2.07
2018-01-01T08:07:15.222Z,2.10
2018-01-01T08:09:43.415Z,2.07
2018-01-01T08:12:10.862Z,2.30
2018-01-01T08:14:38.314Z,2.03
2018-01-01T08:17:06.530Z,2.37
2018-01-01T08:19:33.990Z,2.00
2018-01-01T08:22:01.442Z,2.50
2018-01-01T08:24:28.913Z,2.77
2018-01-01T08:26:56.341Z,2.60
2018-01-01T08:29:24.579Z,2.20
2018-01-01T08:31:52.035Z,1.93
2018-01-01T08:34:19.480Z,1.90
2018-01-01T08:36:46.942Z,2.10
2018-01-01T08:39:14.392Z,2.40
2018-01-01T08:41:41.838Z,2.13
2018-01-01T08:44:10.051Z,2.20
2018-01-01T08:46:37.512Z,2.20
2018-01-01T08:49:04.962Z,2.50
2018-01-01T08:51:32.426Z,2.70
2018-01-01T08:53:59.867Z,3.07
2018-01-01T08:56:28.068Z,2.53
2018-01-01T08:58:55.503Z,2.17
2018-01-01T09:01:23.713Z,2.40
2018-01-01T09:03:51.139Z,2.30
2018-01-01T09:06:19.367Z,2.27
2018-01-01T09:08:46.820Z,2.47
2018-01-01T09:11:14.250Z,2.50
2018-01-01T09:13:42.481Z,2.40
2018-01-01T09:16:09.935Z,2.50
2018-01-01T09:18:37.401Z,2.60
2018-01-01T09:21:04.850Z,2.27
2018-01-01T09:23:32.307Z,2.40
2018-01-01T09:25:59.759Z,2.27
2018-01-01T09:28:27.231Z,2.70
2018-01-01T09:30:54.668Z,2.20
2018-01-01T09:33:22.893Z,2.63
2018-01-01T09:35:50.335Z,2.60
2018-01-01T09:38:17.795Z,3.00
2018-01-01T09:40:45.252Z,3.07
2018-01-01T09:43:12.826Z,2.40
2018-01-01T09:45:40.265Z,2.93
2018-01-01T09:48:08.481Z,2.70
2018-01-01T09:50:35.956Z,2.63
2018-01-01T09:53:03.404Z,2.63
2018-01-01T09:55:30.843Z,2.53
2018-01-01T09:57:58.307Z,2.70
2018-01-01T10:00:26.538Z,2.60
2018-01-01T10:02:53.987Z,2.80
2018-01-01T10:05:21.431Z,2.93
2018-01-01T10:07:48.936Z,3.13
2018-01-01T10:10:16.385Z,2.60
2018-01-01T10:12:43.867Z,2.83
2018-01-01T10:15:11.326Z,3.13
2018-01-01T10:17:38.815Z,3.13
2018-01-01T10:20:07.048Z,2.27
2018-01-01T10:22:34.492Z,2.50
2018-01-01T10:25:01.943Z,2.40
2018-01-01T10:27:29.386Z,2.77
2018-01-01T10:29:57.600Z,2.90
2018-01-01T10:32:25.047Z,3.10
2018-01-01T10:34:52.509Z,2.90
2018-01-01T10:37:19.958Z,3.13
2018-01-01T10:39:48.201Z,2.80
2018-01-01T10:42:15.677Z,2.60
2018-01-01T10:44:43.090Z,3.40
2018-01-01T10:47:10.563Z,3.37
2018-01-01T10:49:38.005Z,2.63
2018-01-01T10:52:05.466Z,2.97
2018-01-01T10:54:32.876Z,2.93
2018-01-01T10:57:00.336Z,3.07
2018-01-01T10:59:27.784Z,3.30
2018-01-01T11:01:55.274Z,3.10
2018-01-01T11:04:22.731Z,3.30
2018-01-01T11:06:50.153Z,2.80
2018-01-01T11:09:17.600Z,2.70
2018-01-01T11:11:45.050Z,3.27
2018-01-01T11:14:13.275Z,3.60
2018-01-01T11:16:40.721Z,3.83
2018-01-01T11:19:08.171Z,2.73
2018-01-01T11:21:35.628Z,3.00
2018-01-01T11:24:03.071Z,3.73
2018-01-01T11:26:31.280Z,3.23
2018-01-01T11:28:58.739Z,3.07
2018-01-01T11:31:26.208Z,3.07
2018-01-01T11:33:53.663Z,3.10
2018-01-01T11:36:21.106Z,2.80
2018-01-01T11:38:49.335Z,2.97
2018-01-01T11:41:17.555Z,2.63
2018-01-01T11:43:45.769Z,3.00
2018-01-01T11:46:13.229Z,2.70
2018-01-01T11:48:40.686Z,3.37
2018-01-01T11:51:08.171Z,2.57
2018-01-01T11:53:35.612Z,3.03
2018-01-01T11:56:03.120Z,3.03
2018-01-01T11:58:30.539Z,2.67
2018-01-01T12:00:57.969Z,2.60
2018-01-01T12:03:26.203Z,2.70
2018-01-01T12:05:53.664Z,2.63
2018-01-01T12:08:21.115Z,2.43
2018-01-01T12:10:48.567Z,2.70
2018-01-01T12:13:16.013Z,2.47
2018-01-01T12:15:44.312Z,2.77
2018-01-01T12:18:11.758Z,3.10
2018-01-01T12:20:40.425Z,2.70
2018-01-01T12:23:07.872Z,2.63
2018-01-01T12:25:35.356Z,2.50
2018-01-01T12:28:03.590Z,2.77
2018-01-01T12:30:31.032Z,2.50
2018-01-01T12:32:58.470Z,3.00
2018-01-01T12:35:26.672Z,2.77
2018-01-01T12:37:54.109Z,2.60
2018-01-01T12:40:22.330Z,2.77
2018-01-01T12:42:49.778Z,3.33
2018-01-01T12:45:17.222Z,2.30
2018-01-01T12:47:45.442Z,2.30
2018-01-01T12:50:12.887Z,2.70
2018-01-01T12:52:40.350Z,2.60
2018-01-01T12:55:07.787Z,2.47
2018-01-01T12:57:36.001Z,2.07
2018-01-01T13:00:03.442Z,2.77
2018-01-01T13:02:30.894Z,2.13
2018-01-01T13:04:59.110Z,2.53
2018-01-01T13:07:26.571Z,2.53
2018-01-01T13:09:54.009Z,2.43
2018-01-01T13:12:22.216Z,2.70
2018-01-01T13:14:49.680Z,2.30
2018-01-01T13:17:17.132Z,2.67
2018-01-01T13:19:44.584Z,2.73
2018-01-01T13:22:12.026Z,3.00
2018-01-01T13:24:40.220Z,2.47
2018-01-01T13:27:07.671Z,2.50
2018-01-01T13:29:35.888Z,2.00
2018-01-01T13:32:03.332Z,3.03
2018-01-01T13:34:30.785Z,3.23
2018-01-01T13:36:58.209Z,2.47
2018-01-01T13:39:25.672Z,2.93
2018-01-01T13:41:53.137Z,2.70
2018-01-01T13:44:20.594Z,2.33
2018-01-01T13:46:48.039Z,2.30
2018-01-01T13:49:16.262Z,2.70
2018-01-01T13:51:44.487Z,4.03
2018-01-01T13:54:11.948Z,2.73
2018-01-01T13:56:39.400Z,2.80
2018-01-01T13:59:06.857Z,3.00
2018-01-01T14:01:34.321Z,2.53
2018-01-01T14:04:01.767Z,3.20
2018-01-01T14:06:29.221Z,2.90
2018-01-01T14:08:57.446Z,3.20
2018-01-01T14:11:24.876Z,2.97
2018-01-01T14:13:52.330Z,3.13
2018-01-01T14:16:21.401Z,4.03
2018-01-01T14:18:48.853Z,3.00
2018-01-01T14:21:16.308Z,2.93
2018-01-01T14:23:43.796Z,2.37
2018-01-01T14:26:11.280Z,2.60
2018-01-01T14:28:39.491Z,3.03
2018-01-01T14:31:06.962Z,3.23
2018-01-01T14:33:34.403Z,2.60
2018-01-01T14:36:01.839Z,3.23
2018-01-01T14:38:30.080Z,2.90
2018-01-01T14:40:57.509Z,3.07
2018-01-01T14:43:24.966Z,3.00
2018-01-01T14:45:52.398Z,3.00
2018-01-01T14:48:20.624Z,3.03
2018-01-01T14:50:48.082Z,3.40
2018-01-01T14:53:15.539Z,2.93
2018-01-01T14:55:42.984Z,2.90
2018-01-01T14:58:11.220Z,3.30
2018-01-01T15:00:39.446Z,2.77
2018-01-01T15:03:07.660Z,2.60
2018-01-01T15:05:35.103Z,3.10
2018-01-01T15:08:02.538Z,2.73
2018-01-01T15:10:30.744Z,3.20
2018-01-01T15:12:58.191Z,3.27
2018-01-01T15:15:26.413Z,2.97
2018-01-01T15:17:53.868Z,2.97
2018-01-01T15:20:21.320Z,3.03
2018-01-01T15:22:48.779Z,2.77
2018-01-01T15:25:16.226Z,3.30
2018-01-01T15:27:43.673Z,3.17
2018-01-01T15:30:11.900Z,3.87
2018-01-01T15:32:39.345Z,3.47
2018-01-01T15:35:06.785Z,3.63
2018-01-01T15:37:35.002Z,2.87
2018-01-01T15:40:02.448Z,4.40
2018-01-01T15:42:29.898Z,3.10
2018-01-01T15:44:57.345Z,3.90
2018-01-01T15:47:25.565Z,3.77
2018-01-01T15:49:53.014Z,3.10
2018-01-01T15:52:20.460Z,2.87
2018-01-01T15:54:47.910Z,3.27
2018-01-01T15:57:16.138Z,3.37
2018-01-01T15:59:43.798Z,3.43
2018-01-01T16:02:11.265Z,3.10
2018-01-01T16:04:38.747Z,3.47
2018-01-01T16:07:06.180Z,3.00
2018-01-01T16:09:34.081Z,3.10
2018-01-01T16:12:01.540Z,3.13
2018-01-01T16:14:28.992Z,3.20
2018-01-01T16:16:56.449Z,3.10
2018-01-01T16:19:23.904Z,3.87
2018-01-01T16:21:51.755Z,3.50
2018-01-01T16:24:19.179Z,2.97
2018-01-01T16:26:46.616Z,3.50
2018-01-01T16:29:14.064Z,3.97
2018-01-01T16:31:41.551Z,3.57
2018-01-01T16:34:08.987Z,3.83
2018-01-01T16:36:36.419Z,3.60
2018-01-01T16:39:04.639Z,4.20
2018-01-01T16:41:32.087Z,3.50
2018-01-01T16:43:59.550Z,4.03
2018-01-01T16:46:26.995Z,3.60
2018-01-01T16:48:54.427Z,3.93
2018-01-01T16:51:21.876Z,3.20
2018-01-01T16:53:49.302Z,3.70
2018-01-01T16:56:16.767Z,4.07
2018-01-01T16:58:44.234Z,4.23
2018-01-01T17:01:11.696Z,3.40
2018-01-01T17:03:39.149Z,3.70
2018-01-01T17:06:06.618Z,3.70
2018-01-01T17:08:34.043Z,4.13
2018-01-01T17:11:02.253Z,4.03
2018-01-01T17:13:29.730Z,3.30
2018-01-01T17:15:57.179Z,3.67
2018-01-01T17:18:24.615Z,3.80
2018-01-01T17:20:52.821Z,3.00
2018-01-01T17:23:20.265Z,3.83
2018-01-01T17:25:47.713Z,3.70
2018-01-01T17:28:15.935Z,3.60
2018-01-01T17:30:43.394Z,4.07
2018-01-01T17:33:10.849Z,4.07
2018-01-01T17:35:38.318Z,4.00
2018-01-01T17:38:05.773Z,4.17
2018-01-01T17:40:33.212Z,3.90
2018-01-01T17:43:01.417Z,3.87
2018-01-01T17:45:28.890Z,3.80
2018-01-01T17:47:56.687Z,4.37
2018-01-01T17:50:24.130Z,3.77
2018-01-01T17:52:51.589Z,3.67
2018-01-01T17:55:19.041Z,4.13
2018-01-01T17:57:46.514Z,3.83
2018-01-01T18:00:13.968Z,4.07
2018-01-01T18:02:41.414Z,4.40
2018-01-01T18:05:08.871Z,4.20
2018-01-01T18:07:37.542Z,4.33
2018-01-01T18:10:04.988Z,4.23
2018-01-01T18:12:32.427Z,3.90
2018-01-01T18:14:59.885Z,4.03
2018-01-01T18:17:27.339Z,4.60
2018-01-01T18:19:54.783Z,4.30
2018-01-01T18:22:22.242Z,4.17
2018-01-01T18:24:50.453Z,3.70
2018-01-01T18:27:18.721Z,4.17
2018-01-01T18:29:46.932Z,4.73
2018-01-01T18:32:14.385Z,4.63
2018-01-01T18:34:41.838Z,4.77
2018-01-01T18:37:09.294Z,4.53
2018-01-01T18:39:36.734Z,5.03
2018-01-01T18:42:04.208Z,5.13
2018-01-01T18:44:32.361Z,4.43
2018-01-01T18:47:00.574Z,4.93
2018-01-01T18:49:28.013Z,5.17
2018-01-01T18:51:55.479Z,4.80
2018-01-01T18:54:22.975Z,4.83
2018-01-01T18:56:50.433Z,4.60
2018-01-01T18:59:17.900Z,3.77
2018-01-01T19:01:45.370Z,4.60
2018-01-01T19:04:12.813Z,4.70
2018-01-01T19:06:40.316Z,4.97
2018-01-01T19:09:07.761Z,5.07
2018-01-01T19:11:35.216Z,4.40
2018-01-01T19:14:02.660Z,4.33
2018-01-01T19:16:30.135Z,4.17
2018-01-01T19:18:57.595Z,3.97
2018-01-01T19:21:25.063Z,4.30
2018-01-01T19:23:52.505Z,4.17
2018-01-01T19:26:19.941Z,4.07
2018-01-01T19:28:48.167Z,4.00
2018-01-01T19:31:15.625Z,3.77
2018-01-01T19:33:43.070Z,4.23
2018-01-01T19:36:11.296Z,3.93
2018-01-01T19:38:38.729Z,4.20
2018-01-01T19:41:06.166Z,3.73
2018-01-01T19:43:33.625Z,3.53
2018-01-01T19:46:01.821Z,3.77
2018-01-01T19:48:29.283Z,3.87
2018-01-01T19:50:56.765Z,3.60
2018-01-01T19:53:24.230Z,3.13
2018-01-01T19:55:51.676Z,3.50
2018-01-01T19:58:19.109Z,3.43
2018-01-01T20:00:48.040Z,3.50
2018-01-01T20:03:15.490Z,3.30
2018-01-01T20:05:42.957Z,3.00
2018-01-01T20:08:10.415Z,3.20
2018-01-01T20:10:37.857Z,3.43
2018-01-01T20:13:06.073Z,3.03
2018-01-01T20:15:33.526Z,3.10
2018-01-01T20:18:00.986Z,3.00
2018-01-01T20:20:28.476Z,3.27
2018-01-01T20:22:55.873Z,3.10
2018-01-01T20:25:23.332Z,3.10
2018-01-01T20:27:50.781Z,3.27
2018-01-01T20:30:18.235Z,3.43
2018-01-01T20:32:45.695Z,3.43
2018-01-01T20:35:13.147Z,3.57
2018-01-01T20:37:40.608Z,3.50
2018-01-01T20:40:08.053Z,3.20
2018-01-01T20:42:35.495Z,3.00
2018-01-01T20:45:02.951Z,2.87
2018-01-01T20:47:31.207Z,3.00
2018-01-01T20:49:58.634Z,2.87
2018-01-01T20:52:26.086Z,3.17
2018-01-01T20:54:53.537Z,3.30
2018-01-01T20:57:20.984Z,3.27
2018-01-01T20:59:49.202Z,2.90
2018-01-01T21:02:16.654Z,2.80
2018-01-01T21:04:44.107Z,3.27
2018-01-01T21:07:11.573Z,3.07
2018-01-01T21:09:39.026Z,3.10
2018-01-01T21:12:06.498Z,2.90
2018-01-01T21:14:33.945Z,2.63
2018-01-01T21:17:01.407Z,3.17
2018-01-01T21:19:28.870Z,3.30
2018-01-01T21:21:56.328Z,2.93
2018-01-01T21:24:24.549Z,3.03
2018-01-01T21:26:52.005Z,2.97
2018-01-01T21:29:19.465Z,2.77
2018-01-01T21:31:47.227Z,3.07
2018-01-01T21:34:14.677Z,3.00
2018-01-01T21:36:42.138Z,2.87
2018-01-01T21:39:09.600Z,2.97
2018-01-01T21:41:37.048Z,3.10
2018-01-01T21:44:05.251Z,3.37
2018-01-01T21:46:32.741Z,3.27
2018-01-01T21:49:00.212Z,2.77
2018-01-01T21:51:27.658Z,3.20
2018-01-01T21:53:55.128Z,2.93
2018-01-01T21:56:22.578Z,3.27
2018-01-01T21:58:50.027Z,3.37
2018-01-01T22:01:17.491Z,2.93
2018-01-01T22:03:44.938Z,3.83
2018-01-01T22:06:12.415Z,3.07
2018-01-01T22:08:39.875Z,3.30
2018-01-01T22:11:07.343Z,3.13
2018-01-01T22:13:34.808Z,3.53
2018-01-01T22:16:02.275Z,2.63
2018-01-01T22:18:29.731Z,3.23
2018-01-01T22:20:57.181Z,3.37
2018-01-01T22:23:24.959Z,2.87
2018-01-01T22:25:52.412Z,3.23
2018-01-01T22:28:19.974Z,3.00
2018-01-01T22:30:47.449Z,3.47
2018-01-01T22:33:15.656Z,2.93
2018-01-01T22:35:43.106Z,2.87
2018-01-01T22:38:10.576Z,3.00
2018-01-01T22:40:38.055Z,3.17
2018-01-01T22:43:05.501Z,3.27
2018-01-01T22:45:32.965Z,2.70
2018-01-01T22:48:01.204Z,2.87
2018-01-01T22:50:29.437Z,2.70
2018-01-01T22:52:56.891Z,3.27
2018-01-01T22:55:24.328Z,2.77
2018-01-01T22:57:51.791Z,3.20
2018-01-01T23:00:19.257Z,2.60
2018-01-01T23:02:46.708Z,3.03
2018-01-01T23:05:14.178Z,2.97
2018-01-01T23:07:41.633Z,2.40
2018-01-01T23:10:09.848Z,2.80
2018-01-01T23:12:37.319Z,2.27
2018-01-01T23:15:04.775Z,2.80
2018-01-01T23:17:32.236Z,2.77
2018-01-01T23:19:59.663Z,2.57
2018-01-01T23:22:27.138Z,3.00
2018-01-01T23:24:54.575Z,2.73
2018-01-01T23:27:22.803Z,2.63
2018-01-01T23:29:50.263Z,3.20
2018-01-01T23:32:17.739Z,2.73
2018-01-01T23:34:45.191Z,2.93
2018-01-01T23:37:12.642Z,2.60
2018-01-01T23:39:40.096Z,2.30
2018-01-01T23:42:07.554Z,2.60
2018-01-01T23:44:34.986Z,2.57
2018-01-01T23:47:03.199Z,2.30
2018-01-01T23:49:30.647Z,2.33
2018-01-01T23:51:58.099Z,2.50
2018-01-01T23:54:26.327Z,2.20
2018-01-01T23:56:53.791Z,2.47
2018-01-01T23:59:21.251Z,2.10
